sensor_id;sensor_type;location;lat;lon;timestamp;temperature;humidity
57108;DHT22;42987;52.916;6.542;2023-03-01T00:01:22;-0.60;99.90
57108;DHT22;42987;52.916;6.542;2023-03-01T00:03:48;-0.60;99.90
57108;DHT22;42987;52.916;6.542;2023-03-01T00:06:14;-0.70;99.90
57108;DHT22;42987;52.916;6.542;2023-03-01T00:08:41;-0.60;99.90
57108;DHT22;42987;52.916;6.542;2023-03-01T00:13:41;-0.60;99.90
57108;DHT22;42987;52.916;6.542;2023-03-01T00:16:11;-0.60;99.90
57108;DHT22;42987;52.916;6.542;2023-03-01T00:18:37;-0.60;99.90
57108;DHT22;42987;52.916;6.542;2023-03-01T00:21:03;-0.60;99.90
57108;DHT22;42987;52.916;6.542;2023-03-01T00:23:29;-0.70;99.90
57108;DHT22;42987;52.916;6.542;2023-03-01T00:25:55;-0.70;99.90
57108;DHT22;42987;52.916;6.542;2023-03-01T00:28:21;-0.70;99.90
57108;DHT22;42987;52.916;6.542;2023-03-01T00:30:49;-0.70;99.90
57108;DHT22;42987;52.916;6.542;2023-03-01T00:33:15;-0.70;99.90
57108;DHT22;42987;52.916;6.542;2023-03-01T00:35:41;-0.70;99.90
57108;DHT22;42987;52.916;6.542;2023-03-01T00:38:07;-0.70;99.90
57108;DHT22;42987;52.916;6.542;2023-03-01T00:40:34;-0.70;99.90
57108;DHT22;42987;52.916;6.542;2023-03-01T00:43:01;-0.70;99.90
57108;DHT22;42987;52.916;6.542;2023-03-01T00:45:27;-0.70;99.90
57108;DHT22;42987;52.916;6.542;2023-03-01T00:47:53;-0.70;99.90
57108;DHT22;42987;52.916;6.542;2023-03-01T00:50:20;-0.70;99.90
57108;DHT22;42987;52.916;6.542;2023-03-01T00:52:46;-0.60;99.90
57108;DHT22;42987;52.916;6.542;2023-03-01T00:55:12;-0.60;99.90
57108;DHT22;42987;52.916;6.542;2023-03-01T00:57:38;-0.60;99.90
57108;DHT22;42987;52.916;6.542;2023-03-01T01:00:05;-0.50;99.90
57108;DHT22;42987;52.916;6.542;2023-03-01T01:02:33;-0.60;99.90
57108;DHT22;42987;52.916;6.542;2023-03-01T01:04:59;-0.60;99.90
57108;DHT22;42987;52.916;6.542;2023-03-01T01:07:25;-0.70;99.90
57108;DHT22;42987;52.916;6.542;2023-03-01T01:09:51;-0.60;99.90
57108;DHT22;42987;52.916;6.542;2023-03-01T01:12:17;-0.60;99.90
57108;DHT22;42987;52.916;6.542;2023-03-01T01:14:42;-0.60;99.90
57108;DHT22;42987;52.916;6.542;2023-03-01T01:17:13;-0.60;99.90
57108;DHT22;42987;52.916;6.542;2023-03-01T01:19:40;-0.60;99.90
57108;DHT22;42987;52.916;6.542;2023-03-01T01:22:06;-0.60;99.90
57108;DHT22;42987;52.916;6.542;2023-03-01T01:24:32;-0.60;99.90
57108;DHT22;42987;52.916;6.542;2023-03-01T01:26:58;-0.60;99.90
57108;DHT22;42987;52.916;6.542;2023-03-01T01:29:24;-0.60;99.90
57108;DHT22;42987;52.916;6.542;2023-03-01T01:31:49;-0.60;99.90
57108;DHT22;42987;52.916;6.542;2023-03-01T01:34:19;-0.60;99.90
57108;DHT22;42987;52.916;6.542;2023-03-01T01:36:49;-0.60;99.90
57108;DHT22;42987;52.916;6.542;2023-03-01T01:39:15;-0.60;99.90
57108;DHT22;42987;52.916;6.542;2023-03-01T01:41:47;-0.60;99.90
57108;DHT22;42987;52.916;6.542;2023-03-01T01:44:27;-0.50;99.90
57108;DHT22;42987;52.916;6.542;2023-03-01T01:46:59;-0.50;99.90
57108;DHT22;42987;52.916;6.542;2023-03-01T01:50:10;-0.60;99.90
57108;DHT22;42987;52.916;6.542;2023-03-01T01:52:35;-0.60;99.90
57108;DHT22;42987;52.916;6.542;2023-03-01T01:55:15;-0.60;99.90
57108;DHT22;42987;52.916;6.542;2023-03-01T01:57:45;-0.70;99.90
57108;DHT22;42987;52.916;6.542;2023-03-01T02:00:20;-0.70;99.90
57108;DHT22;42987;52.916;6.542;2023-03-01T02:02:49;-0.80;99.90
57108;DHT22;42987;52.916;6.542;2023-03-01T02:05:57;-0.80;99.90
57108;DHT22;42987;52.916;6.542;2023-03-01T02:08:23;-0.80;99.90
57108;DHT22;42987;52.916;6.542;2023-03-01T02:10:51;-0.80;99.90
57108;DHT22;42987;52.916;6.542;2023-03-01T02:13:18;-0.90;99.90
57108;DHT22;42987;52.916;6.542;2023-03-01T02:15:47;-0.90;99.90
57108;DHT22;42987;52.916;6.542;2023-03-01T02:18:16;-1.00;99.90
57108;DHT22;42987;52.916;6.542;2023-03-01T02:23:45;-1.00;99.90
57108;DHT22;42987;52.916;6.542;2023-03-01T02:29:04;-1.10;99.90
57108;DHT22;42987;52.916;6.542;2023-03-01T02:31:32;-1.20;99.90
57108;DHT22;42987;52.916;6.542;2023-03-01T02:34:10;-1.30;99.90
57108;DHT22;42987;52.916;6.542;2023-03-01T02:36:49;-1.30;99.90
57108;DHT22;42987;52.916;6.542;2023-03-01T02:39:32;-1.40;99.90
57108;DHT22;42987;52.916;6.542;2023-03-01T02:41:59;-1.30;99.90
57108;DHT22;42987;52.916;6.542;2023-03-01T02:44:26;-1.30;99.90
57108;DHT22;42987;52.916;6.542;2023-03-01T02:46:55;-1.30;99.90
57108;DHT22;42987;52.916;6.542;2023-03-01T02:49:29;-1.30;99.90
57108;DHT22;42987;52.916;6.542;2023-03-01T02:52:01;-1.30;99.90
57108;DHT22;42987;52.916;6.542;2023-03-01T02:57:05;-1.40;99.90
57108;DHT22;42987;52.916;6.542;2023-03-01T02:59:33;-1.50;99.90
57108;DHT22;42987;52.916;6.542;2023-03-01T03:02:18;-1.50;99.90
57108;DHT22;42987;52.916;6.542;2023-03-01T03:04:46;-1.50;99.90
57108;DHT22;42987;52.916;6.542;2023-03-01T03:07:12;-1.60;99.90
57108;DHT22;42987;52.916;6.542;2023-03-01T03:09:38;-1.60;99.90
57108;DHT22;42987;52.916;6.542;2023-03-01T03:12:04;-1.70;99.90
57108;DHT22;42987;52.916;6.542;2023-03-01T03:14:30;-1.70;99.90
57108;DHT22;42987;52.916;6.542;2023-03-01T03:17:00;-1.70;99.90
57108;DHT22;42987;52.916;6.542;2023-03-01T03:19:26;-1.80;99.90
57108;DHT22;42987;52.916;6.542;2023-03-01T03:21:51;-1.80;99.90
57108;DHT22;42987;52.916;6.542;2023-03-01T03:24:17;-1.80;99.90
57108;DHT22;42987;52.916;6.542;2023-03-01T03:26:43;-1.80;99.90
57108;DHT22;42987;52.916;6.542;2023-03-01T03:29:09;-1.90;99.90
57108;DHT22;42987;52.916;6.542;2023-03-01T03:31:35;-1.90;99.90
57108;DHT22;42987;52.916;6.542;2023-03-01T03:34:01;-1.90;99.90
57108;DHT22;42987;52.916;6.542;2023-03-01T03:36:26;-2.00;99.90
57108;DHT22;42987;52.916;6.542;2023-03-01T03:38:52;-2.00;99.90
57108;DHT22;42987;52.916;6.542;2023-03-01T03:41:19;-2.00;99.90
57108;DHT22;42987;52.916;6.542;2023-03-01T03:43:45;-2.10;99.90
57108;DHT22;42987;52.916;6.542;2023-03-01T03:46:11;-2.10;99.90
57108;DHT22;42987;52.916;6.542;2023-03-01T03:48:43;-2.10;99.90
57108;DHT22;42987;52.916;6.542;2023-03-01T03:51:11;-2.10;99.90
57108;DHT22;42987;52.916;6.542;2023-03-01T03:53:37;-2.00;99.90
57108;DHT22;42987;52.916;6.542;2023-03-01T03:56:03;-2.00;99.90
57108;DHT22;42987;52.916;6.542;2023-03-01T03:58:29;-2.00;99.90
57108;DHT22;42987;52.916;6.542;2023-03-01T04:00:57;-2.00;99.90
57108;DHT22;42987;52.916;6.542;2023-03-01T04:03:25;-2.00;99.90
57108;DHT22;42987;52.916;6.542;2023-03-01T04:05:52;-2.00;99.90
57108;DHT22;42987;52.916;6.542;2023-03-01T04:08:19;-2.10;99.90
57108;DHT22;42987;52.916;6.542;2023-03-01T04:10:48;-2.10;99.90
57108;DHT22;42987;52.916;6.542;2023-03-01T04:13:17;-2.10;99.90
57108;DHT22;42987;52.916;6.542;2023-03-01T04:15:48;-2.10;99.90
57108;DHT22;42987;52.916;6.542;2023-03-01T04:18:16;-2.10;99.90
57108;DHT22;42987;52.916;6.542;2023-03-01T04:20:43;-2.10;99.90
57108;DHT22;42987;52.916;6.542;2023-03-01T04:23:14;-2.20;99.90
57108;DHT22;42987;52.916;6.542;2023-03-01T04:25:58;-2.20;99.90
57108;DHT22;42987;52.916;6.542;2023-03-01T04:28:38;-2.20;99.90
57108;DHT22;42987;52.916;6.542;2023-03-01T04:31:11;-2.20;99.90
57108;DHT22;42987;52.916;6.542;2023-03-01T04:33:46;-2.30;99.90
57108;DHT22;42987;52.916;6.542;2023-03-01T04:36:13;-2.30;99.90
57108;DHT22;42987;52.916;6.542;2023-03-01T04:38:40;-2.30;99.90
57108;DHT22;42987;52.916;6.542;2023-03-01T04:41:08;-2.40;99.90
57108;DHT22;42987;52.916;6.542;2023-03-01T04:43:35;-2.50;99.90
57108;DHT22;42987;52.916;6.542;2023-03-01T04:46:03;-2.50;99.90
57108;DHT22;42987;52.916;6.542;2023-03-01T04:48:30;-2.50;99.90
57108;DHT22;42987;52.916;6.542;2023-03-01T04:50:59;-2.60;99.90
57108;DHT22;42987;52.916;6.542;2023-03-01T04:53:26;-2.60;99.90
57108;DHT22;42987;52.916;6.542;2023-03-01T04:55:56;-2.60;99.90
57108;DHT22;42987;52.916;6.542;2023-03-01T04:58:23;-2.50;99.90
57108;DHT22;42987;52.916;6.542;2023-03-01T05:00:49;-2.70;99.90
57108;DHT22;42987;52.916;6.542;2023-03-01T05:03:15;-2.60;99.90
57108;DHT22;42987;52.916;6.542;2023-03-01T05:05:44;-2.60;99.90
57108;DHT22;42987;52.916;6.542;2023-03-01T05:08:11;-2.60;99.90
57108;DHT22;42987;52.916;6.542;2023-03-01T05:10:49;-2.70;99.90
57108;DHT22;42987;52.916;6.542;2023-03-01T05:13:16;-2.60;99.90
57108;DHT22;42987;52.916;6.542;2023-03-01T05:16:00;-2.70;99.90
57108;DHT22;42987;52.916;6.542;2023-03-01T05:18:28;-2.70;99.90
57108;DHT22;42987;52.916;6.542;2023-03-01T05:21:11;-2.70;99.90
57108;DHT22;42987;52.916;6.542;2023-03-01T05:23:37;-2.80;99.90
57108;DHT22;42987;52.916;6.542;2023-03-01T05:26:04;-2.80;99.90
57108;DHT22;42987;52.916;6.542;2023-03-01T05:28:31;-2.80;99.90
57108;DHT22;42987;52.916;6.542;2023-03-01T05:30:57;-2.80;99.90
57108;DHT22;42987;52.916;6.542;2023-03-01T05:33:27;-2.80;99.90
57108;DHT22;42987;52.916;6.542;2023-03-01T05:35:53;-2.80;99.90
57108;DHT22;42987;52.916;6.542;2023-03-01T05:38:20;-2.90;99.90
57108;DHT22;42987;52.916;6.542;2023-03-01T05:40:47;-2.90;99.90
57108;DHT22;42987;52.916;6.542;2023-03-01T05:43:15;-2.90;99.90
57108;DHT22;42987;52.916;6.542;2023-03-01T05:45:42;-2.90;99.90
57108;DHT22;42987;52.916;6.542;2023-03-01T05:48:09;-3.00;99.90
57108;DHT22;42987;52.916;6.542;2023-03-01T05:50:40;-3.10;99.90
57108;DHT22;42987;52.916;6.542;2023-03-01T05:53:14;-3.00;99.90
57108;DHT22;42987;52.916;6.542;2023-03-01T05:55:40;-3.00;99.90
57108;DHT22;42987;52.916;6.542;2023-03-01T05:58:11;-3.00;99.90
57108;DHT22;42987;52.916;6.542;2023-03-01T06:00:37;-3.00;99.90
57108;DHT22;42987;52.916;6.542;2023-03-01T06:03:03;-3.00;99.90
57108;DHT22;42987;52.916;6.542;2023-03-01T06:05:29;-3.00;99.90
57108;DHT22;42987;52.916;6.542;2023-03-01T06:07:58;-3.00;99.90
57108;DHT22;42987;52.916;6.542;2023-03-01T06:10:25;-3.00;99.90
57108;DHT22;42987;52.916;6.542;2023-03-01T06:12:51;-2.90;99.90
57108;DHT22;42987;52.916;6.542;2023-03-01T06:15:17;-3.00;99.90
57108;DHT22;42987;52.916;6.542;2023-03-01T06:17:46;-3.00;99.90
57108;DHT22;42987;52.916;6.542;2023-03-01T06:20:18;-3.00;99.90
57108;DHT22;42987;52.916;6.542;2023-03-01T06:22:44;-3.00;99.90
57108;DHT22;42987;52.916;6.542;2023-03-01T06:25:12;-3.00;99.90
57108;DHT22;42987;52.916;6.542;2023-03-01T06:27:38;-3.00;99.90
57108;DHT22;42987;52.916;6.542;2023-03-01T06:30:04;-3.00;99.90
57108;DHT22;42987;52.916;6.542;2023-03-01T06:32:30;-3.00;99.90
57108;DHT22;42987;52.916;6.542;2023-03-01T06:34:57;-3.00;99.90
57108;DHT22;42987;52.916;6.542;2023-03-01T06:37:25;-3.00;99.90
57108;DHT22;42987;52.916;6.542;2023-03-01T06:39:51;-3.00;99.90
57108;DHT22;42987;52.916;6.542;2023-03-01T06:42:16;-2.90;99.90
57108;DHT22;42987;52.916;6.542;2023-03-01T06:44:45;-2.80;99.90
57108;DHT22;42987;52.916;6.542;2023-03-01T06:47:11;-2.70;99.90
57108;DHT22;42987;52.916;6.542;2023-03-01T06:49:37;-2.60;99.90
57108;DHT22;42987;52.916;6.542;2023-03-01T06:52:03;-2.60;99.90
57108;DHT22;42987;52.916;6.542;2023-03-01T06:54:29;-2.50;99.90
57108;DHT22;42987;52.916;6.542;2023-03-01T06:56:55;-2.40;99.90
57108;DHT22;42987;52.916;6.542;2023-03-01T06:59:21;-2.40;99.90
57108;DHT22;42987;52.916;6.542;2023-03-01T07:01:46;-2.30;99.90
57108;DHT22;42987;52.916;6.542;2023-03-01T07:04:13;-2.20;99.90
57108;DHT22;42987;52.916;6.542;2023-03-01T07:06:39;-2.10;99.90
57108;DHT22;42987;52.916;6.542;2023-03-01T07:09:05;-2.10;99.90
57108;DHT22;42987;52.916;6.542;2023-03-01T07:11:31;-2.00;99.90
57108;DHT22;42987;52.916;6.542;2023-03-01T07:13:56;-2.00;99.90
57108;DHT22;42987;52.916;6.542;2023-03-01T07:16:23;-2.00;99.90
57108;DHT22;42987;52.916;6.542;2023-03-01T07:18:49;-1.90;99.90
57108;DHT22;42987;52.916;6.542;2023-03-01T07:21:15;-2.00;99.90
57108;DHT22;42987;52.916;6.542;2023-03-01T07:23:42;-1.80;99.90
57108;DHT22;42987;52.916;6.542;2023-03-01T07:26:08;-1.70;99.90
57108;DHT22;42987;52.916;6.542;2023-03-01T07:28:34;-1.80;99.90
57108;DHT22;42987;52.916;6.542;2023-03-01T07:31:02;-1.70;99.90
57108;DHT22;42987;52.916;6.542;2023-03-01T07:33:28;-1.70;99.90
57108;DHT22;42987;52.916;6.542;2023-03-01T07:36:02;-1.70;99.90
57108;DHT22;42987;52.916;6.542;2023-03-01T07:38:28;-1.60;99.90
57108;DHT22;42987;52.916;6.542;2023-03-01T07:41:01;-1.50;99.90
57108;DHT22;42987;52.916;6.542;2023-03-01T07:43:28;-1.40;99.90
57108;DHT22;42987;52.916;6.542;2023-03-01T07:45:57;-1.40;99.90
57108;DHT22;42987;52.916;6.542;2023-03-01T07:48:23;-1.30;99.90
57108;DHT22;42987;52.916;6.542;2023-03-01T07:50:52;-1.10;99.90
57108;DHT22;42987;52.916;6.542;2023-03-01T07:53:18;-1.10;99.90
57108;DHT22;42987;52.916;6.542;2023-03-01T07:55:43;-1.00;99.90
57108;DHT22;42987;52.916;6.542;2023-03-01T07:58:09;-0.90;99.90
57108;DHT22;42987;52.916;6.542;2023-03-01T08:00:35;-0.90;99.90
57108;DHT22;42987;52.916;6.542;2023-03-01T08:03:01;-0.80;99.90
57108;DHT22;42987;52.916;6.542;2023-03-01T08:05:28;-0.70;99.90
57108;DHT22;42987;52.916;6.542;2023-03-01T08:07:57;-0.70;99.90
57108;DHT22;42987;52.916;6.542;2023-03-01T08:10:22;-0.60;99.90
57108;DHT22;42987;52.916;6.542;2023-03-01T08:12:51;-0.50;99.90
57108;DHT22;42987;52.916;6.542;2023-03-01T08:15:17;-0.30;99.90
57108;DHT22;42987;52.916;6.542;2023-03-01T08:17:49;-0.10;99.90
57108;DHT22;42987;52.916;6.542;2023-03-01T08:20:15;0.10;99.90
57108;DHT22;42987;52.916;6.542;2023-03-01T08:22:42;0.40;99.90
57108;DHT22;42987;52.916;6.542;2023-03-01T08:25:08;0.70;99.90
57108;DHT22;42987;52.916;6.542;2023-03-01T08:27:34;0.90;99.90
57108;DHT22;42987;52.916;6.542;2023-03-01T08:30:00;1.20;99.90
57108;DHT22;42987;52.916;6.542;2023-03-01T08:32:25;1.40;99.90
57108;DHT22;42987;52.916;6.542;2023-03-01T08:34:51;1.60;99.90
57108;DHT22;42987;52.916;6.542;2023-03-01T08:37:17;1.70;99.90
57108;DHT22;42987;52.916;6.542;2023-03-01T08:39:43;2.00;99.90
57108;DHT22;42987;52.916;6.542;2023-03-01T08:42:09;2.30;99.90
57108;DHT22;42987;52.916;6.542;2023-03-01T08:44:34;2.50;99.90
57108;DHT22;42987;52.916;6.542;2023-03-01T08:47:00;2.70;99.90
57108;DHT22;42987;52.916;6.542;2023-03-01T08:49:27;2.80;99.90
57108;DHT22;42987;52.916;6.542;2023-03-01T08:51:54;3.10;99.90
57108;DHT22;42987;52.916;6.542;2023-03-01T08:54:21;3.30;99.90
57108;DHT22;42987;52.916;6.542;2023-03-01T08:56:48;3.50;99.90
57108;DHT22;42987;52.916;6.542;2023-03-01T08:59:17;3.70;99.90
57108;DHT22;42987;52.916;6.542;2023-03-01T09:01:43;3.90;99.90
57108;DHT22;42987;52.916;6.542;2023-03-01T09:04:10;4.00;99.90
57108;DHT22;42987;52.916;6.542;2023-03-01T09:06:36;4.00;99.90
57108;DHT22;42987;52.916;6.542;2023-03-01T09:09:04;4.20;99.90
57108;DHT22;42987;52.916;6.542;2023-03-01T09:11:30;4.20;99.90
57108;DHT22;42987;52.916;6.542;2023-03-01T09:13:56;4.20;99.90
57108;DHT22;42987;52.916;6.542;2023-03-01T09:16:23;4.20;99.90
57108;DHT22;42987;52.916;6.542;2023-03-01T09:18:53;4.20;99.90
57108;DHT22;42987;52.916;6.542;2023-03-01T09:21:21;4.20;99.90
57108;DHT22;42987;52.916;6.542;2023-03-01T09:23:48;4.20;99.90
57108;DHT22;42987;52.916;6.542;2023-03-01T09:26:20;4.10;99.90
57108;DHT22;42987;52.916;6.542;2023-03-01T09:28:51;4.10;99.90
57108;DHT22;42987;52.916;6.542;2023-03-01T09:31:19;4.20;99.90
57108;DHT22;42987;52.916;6.542;2023-03-01T09:33:51;4.20;99.90
57108;DHT22;42987;52.916;6.542;2023-03-01T09:36:19;4.20;99.90
57108;DHT22;42987;52.916;6.542;2023-03-01T09:38:46;4.20;99.90
57108;DHT22;42987;52.916;6.542;2023-03-01T09:46:51;4.30;99.90
57108;DHT22;42987;52.916;6.542;2023-03-01T09:49:29;4.30;99.90
57108;DHT22;42987;52.916;6.542;2023-03-01T09:52:12;4.40;99.90
57108;DHT22;42987;52.916;6.542;2023-03-01T09:54:42;4.50;99.90
57108;DHT22;42987;52.916;6.542;2023-03-01T09:57:33;4.50;99.90
57108;DHT22;42987;52.916;6.542;2023-03-01T10:00:20;4.60;99.90
57108;DHT22;42987;52.916;6.542;2023-03-01T10:08:27;4.80;99.90
57108;DHT22;42987;52.916;6.542;2023-03-01T10:10:57;4.90;99.90
57108;DHT22;42987;52.916;6.542;2023-03-01T10:16:26;5.00;99.90
57108;DHT22;42987;52.916;6.542;2023-03-01T10:18:57;5.10;99.90
57108;DHT22;42987;52.916;6.542;2023-03-01T10:21:27;5.20;99.90
57108;DHT22;42987;52.916;6.542;2023-03-01T10:24:04;5.20;99.90
57108;DHT22;42987;52.916;6.542;2023-03-01T10:26:44;5.30;99.90
57108;DHT22;42987;52.916;6.542;2023-03-01T10:29:13;5.40;99.90
57108;DHT22;42987;52.916;6.542;2023-03-01T10:31:51;5.40;99.90
57108;DHT22;42987;52.916;6.542;2023-03-01T10:34:20;5.40;99.90
57108;DHT22;42987;52.916;6.542;2023-03-01T10:36:50;5.50;99.90
57108;DHT22;42987;52.916;6.542;2023-03-01T10:39:22;5.50;99.90
57108;DHT22;42987;52.916;6.542;2023-03-01T10:41:56;5.50;99.90
57108;DHT22;42987;52.916;6.542;2023-03-01T10:47:22;5.70;99.90
57108;DHT22;42987;52.916;6.542;2023-03-01T10:50:04;5.70;99.90
57108;DHT22;42987;52.916;6.542;2023-03-01T10:52:39;5.80;99.90
57108;DHT22;42987;52.916;6.542;2023-03-01T10:57:37;5.80;99.90
57108;DHT22;42987;52.916;6.542;2023-03-01T11:00:24;5.90;99.90
57108;DHT22;42987;52.916;6.542;2023-03-01T11:03:03;5.90;99.90
57108;DHT22;42987;52.916;6.542;2023-03-01T11:05:32;5.90;99.90
57108;DHT22;42987;52.916;6.542;2023-03-01T11:08:01;6.00;99.90
57108;DHT22;42987;52.916;6.542;2023-03-01T11:10:32;6.10;99.90
57108;DHT22;42987;52.916;6.542;2023-03-01T11:13:15;6.10;99.90
57108;DHT22;42987;52.916;6.542;2023-03-01T11:15:41;6.10;99.90
57108;DHT22;42987;52.916;6.542;2023-03-01T11:18:28;6.10;99.90
57108;DHT22;42987;52.916;6.542;2023-03-01T11:20:55;6.20;99.90
57108;DHT22;42987;52.916;6.542;2023-03-01T11:23:22;6.20;99.90
57108;DHT22;42987;52.916;6.542;2023-03-01T11:25:56;6.20;99.90
57108;DHT22;42987;52.916;6.542;2023-03-01T11:28:24;6.30;98.80
57108;DHT22;42987;52.916;6.542;2023-03-01T11:33:43;6.30;98.40
57108;DHT22;42987;52.916;6.542;2023-03-01T11:38:55;6.40;96.10
57108;DHT22;42987;52.916;6.542;2023-03-01T11:41:26;6.40;96.00
57108;DHT22;42987;52.916;6.542;2023-03-01T11:44:14;6.30;96.10
57108;DHT22;42987;52.916;6.542;2023-03-01T12:00:31;6.60;95.80
57108;DHT22;42987;52.916;6.542;2023-03-01T12:14:59;6.80;94.90
57108;DHT22;42987;52.916;6.542;2023-03-01T12:21:02;6.80;95.50
57108;DHT22;42987;52.916;6.542;2023-03-01T12:43:44;7.30;94.30
57108;DHT22;42987;52.916;6.542;2023-03-01T12:46:25;7.30;94.10
57108;DHT22;42987;52.916;6.542;2023-03-01T12:51:31;7.40;94.60
57108;DHT22;42987;52.916;6.542;2023-03-01T12:54:01;7.40;94.60
57108;DHT22;42987;52.916;6.542;2023-03-01T12:56:32;7.40;94.30
57108;DHT22;42987;52.916;6.542;2023-03-01T12:59:15;7.40;95.10
57108;DHT22;42987;52.916;6.542;2023-03-01T13:04:40;7.60;95.60
57108;DHT22;42987;52.916;6.542;2023-03-01T13:18:26;7.60;96.50
57108;DHT22;42987;52.916;6.542;2023-03-01T13:20:50;7.50;97.70
57108;DHT22;42987;52.916;6.542;2023-03-01T13:28:39;7.70;95.70
57108;DHT22;42987;52.916;6.542;2023-03-01T13:31:56;7.70;95.50
57108;DHT22;42987;52.916;6.542;2023-03-01T13:34:03;7.60;95.10
57108;DHT22;42987;52.916;6.542;2023-03-01T13:39:31;7.70;95.00
57108;DHT22;42987;52.916;6.542;2023-03-01T13:44:56;7.70;95.50
57108;DHT22;42987;52.916;6.542;2023-03-01T13:47:23;7.70;95.80
57108;DHT22;42987;52.916;6.542;2023-03-01T13:49:59;7.70;95.70
57108;DHT22;42987;52.916;6.542;2023-03-01T13:52:45;7.70;95.70
57108;DHT22;42987;52.916;6.542;2023-03-01T13:57:44;7.70;95.10
57108;DHT22;42987;52.916;6.542;2023-03-01T14:00:47;7.80;95.60
57108;DHT22;42987;52.916;6.542;2023-03-01T14:03:18;7.80;96.40
57108;DHT22;42987;52.916;6.542;2023-03-01T14:08:29;8.00;94.20
57108;DHT22;42987;52.916;6.542;2023-03-01T14:16:30;8.10;91.00
57108;DHT22;42987;52.916;6.542;2023-03-01T14:19:15;8.00;90.80
57108;DHT22;42987;52.916;6.542;2023-03-01T14:21:42;8.00;92.10
57108;DHT22;42987;52.916;6.542;2023-03-01T14:24:21;8.00;92.60
57108;DHT22;42987;52.916;6.542;2023-03-01T14:26:48;8.20;91.30
57108;DHT22;42987;52.916;6.542;2023-03-01T14:29:35;8.10;91.50
57108;DHT22;42987;52.916;6.542;2023-03-01T14:32:28;8.00;91.10
57108;DHT22;42987;52.916;6.542;2023-03-01T14:34:56;7.90;90.90
57108;DHT22;42987;52.916;6.542;2023-03-01T14:37:32;7.90;91.10
57108;DHT22;42987;52.916;6.542;2023-03-01T14:39:59;8.00;91.30
57108;DHT22;42987;52.916;6.542;2023-03-01T14:42:29;8.00;91.80
57108;DHT22;42987;52.916;6.542;2023-03-01T14:44:56;8.00;90.40
57108;DHT22;42987;52.916;6.542;2023-03-01T14:47:29;7.90;90.70
57108;DHT22;42987;52.916;6.542;2023-03-01T14:50:31;7.90;91.40
57108;DHT22;42987;52.916;6.542;2023-03-01T14:53:06;7.90;90.80
57108;DHT22;42987;52.916;6.542;2023-03-01T14:55:40;7.90;90.70
57108;DHT22;42987;52.916;6.542;2023-03-01T14:58:15;7.80;90.90
57108;DHT22;42987;52.916;6.542;2023-03-01T15:01:02;7.80;90.90
57108;DHT22;42987;52.916;6.542;2023-03-01T15:03:35;7.80;91.90
57108;DHT22;42987;52.916;6.542;2023-03-01T15:06:04;7.90;91.70
57108;DHT22;42987;52.916;6.542;2023-03-01T15:08:31;7.90;92.30
57108;DHT22;42987;52.916;6.542;2023-03-01T15:11:05;7.90;92.80
57108;DHT22;42987;52.916;6.542;2023-03-01T15:13:34;7.80;92.60
57108;DHT22;42987;52.916;6.542;2023-03-01T15:16:14;7.80;91.40
57108;DHT22;42987;52.916;6.542;2023-03-01T15:19:04;7.90;91.40
57108;DHT22;42987;52.916;6.542;2023-03-01T15:21:37;7.80;91.20
57108;DHT22;42987;52.916;6.542;2023-03-01T15:26:50;7.80;91.70
57108;DHT22;42987;52.916;6.542;2023-03-01T15:29:33;7.80;92.10
57108;DHT22;42987;52.916;6.542;2023-03-01T15:32:32;7.80;91.60
57108;DHT22;42987;52.916;6.542;2023-03-01T15:37:48;7.70;92.50
57108;DHT22;42987;52.916;6.542;2023-03-01T15:40:25;7.70;93.20
57108;DHT22;42987;52.916;6.542;2023-03-01T15:43:13;7.70;93.50
57108;DHT22;42987;52.916;6.542;2023-03-01T15:45:58;7.60;93.40
57108;DHT22;42987;52.916;6.542;2023-03-01T15:48:24;7.60;93.50
57108;DHT22;42987;52.916;6.542;2023-03-01T15:50:57;7.60;93.50
57108;DHT22;42987;52.916;6.542;2023-03-01T15:53:24;7.50;94.60
57108;DHT22;42987;52.916;6.542;2023-03-01T15:55:50;7.60;94.70
57108;DHT22;42987;52.916;6.542;2023-03-01T15:58:19;7.60;94.80
57108;DHT22;42987;52.916;6.542;2023-03-01T16:00:46;7.50;94.80
57108;DHT22;42987;52.916;6.542;2023-03-01T16:03:14;7.50;95.00
57108;DHT22;42987;52.916;6.542;2023-03-01T16:05:42;7.50;94.80
57108;DHT22;42987;52.916;6.542;2023-03-01T16:08:08;7.40;96.10
57108;DHT22;42987;52.916;6.542;2023-03-01T16:10:40;7.40;96.20
57108;DHT22;42987;52.916;6.542;2023-03-01T16:13:07;7.30;96.60
57108;DHT22;42987;52.916;6.542;2023-03-01T16:15:33;7.30;96.90
57108;DHT22;42987;52.916;6.542;2023-03-01T16:18:03;7.20;97.30
57108;DHT22;42987;52.916;6.542;2023-03-01T16:20:31;7.10;97.70
57108;DHT22;42987;52.916;6.542;2023-03-01T16:23:06;7.10;98.40
57108;DHT22;42987;52.916;6.542;2023-03-01T16:25:32;7.10;98.90
57108;DHT22;42987;52.916;6.542;2023-03-01T16:27:58;7.00;99.10
57108;DHT22;42987;52.916;6.542;2023-03-01T16:30:26;7.00;99.20
57108;DHT22;42987;52.916;6.542;2023-03-01T16:32:53;7.00;99.70
57108;DHT22;42987;52.916;6.542;2023-03-01T16:35:21;6.90;99.90
57108;DHT22;42987;52.916;6.542;2023-03-01T16:37:48;6.90;99.90
57108;DHT22;42987;52.916;6.542;2023-03-01T16:40:18;6.80;99.90
57108;DHT22;42987;52.916;6.542;2023-03-01T16:42:43;6.80;99.90
57108;DHT22;42987;52.916;6.542;2023-03-01T16:45:09;6.70;99.90
57108;DHT22;42987;52.916;6.542;2023-03-01T16:47:35;6.70;99.90
57108;DHT22;42987;52.916;6.542;2023-03-01T16:50:01;6.60;99.90
57108;DHT22;42987;52.916;6.542;2023-03-01T16:52:27;6.60;99.90
57108;DHT22;42987;52.916;6.542;2023-03-01T16:54:53;6.50;99.90
57108;DHT22;42987;52.916;6.542;2023-03-01T16:57:19;6.50;99.90
57108;DHT22;42987;52.916;6.542;2023-03-01T16:59:45;6.50;99.90
57108;DHT22;42987;52.916;6.542;2023-03-01T17:02:12;6.40;99.90
57108;DHT22;42987;52.916;6.542;2023-03-01T17:04:43;6.30;99.90
57108;DHT22;42987;52.916;6.542;2023-03-01T17:07:09;6.30;99.90
57108;DHT22;42987;52.916;6.542;2023-03-01T17:09:36;6.20;99.90
57108;DHT22;42987;52.916;6.542;2023-03-01T17:12:03;6.10;99.90
57108;DHT22;42987;52.916;6.542;2023-03-01T17:14:29;6.10;99.90
57108;DHT22;42987;52.916;6.542;2023-03-01T17:16:55;6.00;99.90
57108;DHT22;42987;52.916;6.542;2023-03-01T17:19:21;6.00;99.90
57108;DHT22;42987;52.916;6.542;2023-03-01T17:21:50;5.90;99.90
57108;DHT22;42987;52.916;6.542;2023-03-01T17:24:16;5.80;99.90
57108;DHT22;42987;52.916;6.542;2023-03-01T17:26:42;5.70;99.90
57108;DHT22;42987;52.916;6.542;2023-03-01T17:29:07;5.60;99.90
57108;DHT22;42987;52.916;6.542;2023-03-01T17:31:34;5.60;99.90
57108;DHT22;42987;52.916;6.542;2023-03-01T17:34:00;5.50;99.90
57108;DHT22;42987;52.916;6.542;2023-03-01T17:36:25;5.50;99.90
57108;DHT22;42987;52.916;6.542;2023-03-01T17:38:51;5.50;99.90
57108;DHT22;42987;52.916;6.542;2023-03-01T17:41:18;5.40;99.90
57108;DHT22;42987;52.916;6.542;2023-03-01T17:43:45;5.40;99.90
57108;DHT22;42987;52.916;6.542;2023-03-01T17:46:13;5.40;99.90
57108;DHT22;42987;52.916;6.542;2023-03-01T17:48:39;5.30;99.90
57108;DHT22;42987;52.916;6.542;2023-03-01T17:51:07;5.30;99.90
57108;DHT22;42987;52.916;6.542;2023-03-01T17:53:33;5.30;99.90
57108;DHT22;42987;52.916;6.542;2023-03-01T17:56:01;5.20;99.90
57108;DHT22;42987;52.916;6.542;2023-03-01T17:58:27;5.20;99.90
57108;DHT22;42987;52.916;6.542;2023-03-01T18:00:53;5.20;99.90
57108;DHT22;42987;52.916;6.542;2023-03-01T18:03:20;5.20;99.90